createdAt,value
2019-05-18T00:00:01.862Z,9.4
2019-05-18T00:00:52.731Z,9.4
2019-05-18T00:01:43.615Z,9.4
2019-05-18T00:02:34.511Z,9.4
2019-05-18T00:03:25.385Z,9.4
2019-05-18T00:04:16.251Z,9.4
2019-05-18T00:05:07.125Z,9.4
2019-05-18T00:05:57.995Z,9.4
2019-05-18T00:06:48.867Z,9.4
2019-05-18T00:07:39.773Z,9.4
2019-05-18T00:08:30.653Z,9.4
2019-05-18T00:09:21.528Z,9.4
2019-05-18T00:10:12.398Z,9.4
2019-05-18T00:11:03.317Z,9.4
2019-05-18T00:11:54.209Z,9.4
2019-05-18T00:12:45.127Z,9.4
2019-05-18T00:13:35.991Z,9.3
2019-05-18T00:14:26.863Z,9.3
2019-05-18T00:15:17.731Z,9.3
2019-05-18T00:16:08.597Z,9.3
2019-05-18T00:16:59.482Z,9.3
2019-05-18T00:17:50.384Z,9.3
2019-05-18T00:18:41.256Z,9.3
2019-05-18T00:19:32.130Z,9.3
2019-05-18T00:20:22.996Z,9.4
2019-05-18T00:21:13.870Z,9.4
2019-05-18T00:22:04.744Z,9.4
2019-05-18T00:22:55.649Z,9.4
2019-05-18T00:23:46.520Z,9.4
2019-05-18T00:24:37.388Z,9.4
2019-05-18T00:25:28.253Z,9.4
2019-05-18T00:26:19.119Z,9.4
2019-05-18T00:27:09.998Z,9.4
2019-05-18T00:28:00.907Z,9.4
2019-05-18T00:28:51.769Z,9.4
2019-05-18T00:29:42.638Z,9.4
2019-05-18T00:30:33.512Z,9.4
2019-05-18T00:31:24.378Z,9.4
2019-05-18T00:32:15.260Z,9.4
2019-05-18T00:33:06.177Z,9.4
2019-05-18T00:33:57.046Z,9.4
2019-05-18T00:34:47.915Z,9.4
2019-05-18T00:35:38.785Z,9.4
2019-05-18T00:36:29.655Z,9.4
2019-05-18T00:37:20.517Z,9.4
2019-05-18T00:38:11.427Z,9.4
2019-05-18T00:39:02.302Z,9.4
2019-05-18T00:39:53.180Z,9.4
2019-05-18T00:40:44.056Z,9.3
2019-05-18T00:41:34.925Z,9.3
2019-05-18T00:42:25.797Z,9.3
2019-05-18T00:43:16.696Z,9.3
2019-05-18T00:44:07.569Z,9.3
2019-05-18T00:44:58.441Z,9.3
2019-05-18T00:45:49.316Z,9.3
2019-05-18T00:46:40.189Z,9.3
2019-05-18T00:47:40.651Z,9.2
2019-05-18T00:48:26.904Z,9.2
2019-05-18T00:49:17.770Z,9.2
2019-05-18T00:50:08.635Z,9.3
2019-05-18T00:50:59.507Z,9.2
2019-05-18T00:51:50.377Z,9.2
2019-05-18T00:52:41.246Z,9.1
2019-05-18T00:53:32.143Z,9.2
2019-05-18T00:54:23.012Z,9.2
2019-05-18T00:55:13.881Z,9.2
2019-05-18T00:56:04.759Z,9.2
2019-05-18T00:56:55.654Z,9.2
2019-05-18T00:57:46.536Z,9.2
2019-05-18T00:58:37.439Z,9.2
2019-05-18T00:59:28.311Z,9.2
2019-05-18T01:00:19.184Z,9.1
2019-05-18T01:01:10.060Z,9.2
2019-05-18T01:02:00.941Z,9.2
2019-05-18T01:02:51.822Z,9.2
2019-05-18T01:03:42.725Z,9.2
2019-05-18T01:04:33.598Z,9.2
2019-05-18T01:05:24.469Z,9.3
2019-05-18T01:06:15.344Z,9.3
2019-05-18T01:07:06.209Z,9.3
2019-05-18T01:07:57.075Z,9.3
2019-05-18T01:08:47.984Z,9.3
2019-05-18T01:09:38.850Z,9.3
2019-05-18T01:10:29.714Z,9.3
2019-05-18T01:11:20.588Z,9.2
2019-05-18T01:12:11.508Z,9.2
2019-05-18T01:13:02.382Z,9.2
2019-05-18T01:13:53.294Z,9.2
2019-05-18T01:14:44.165Z,9.2
2019-05-18T01:15:35.036Z,9.3
2019-05-18T01:16:25.936Z,9.3
2019-05-18T01:17:16.815Z,9.3
2019-05-18T01:18:07.697Z,9.2
2019-05-18T01:18:58.608Z,9.2
2019-05-18T01:19:49.480Z,9.3
2019-05-18T01:20:40.351Z,9.3
2019-05-18T01:21:31.223Z,9.3
2019-05-18T01:22:22.099Z,9.3
2019-05-18T01:23:12.985Z,9.3
2019-05-18T01:24:03.889Z,9.3
2019-05-18T01:24:54.760Z,9.3
2019-05-18T01:25:45.627Z,9.3
2019-05-18T01:26:36.500Z,9.3
2019-05-18T01:27:27.371Z,9.3
2019-05-18T01:28:18.243Z,9.3
2019-05-18T01:29:09.105Z,9.3
2019-05-18T01:29:59.999Z,9.3
2019-05-18T01:30:50.876Z,9.3
2019-05-18T01:31:41.742Z,9.3
2019-05-18T01:32:32.622Z,9.3
2019-05-18T01:33:23.501Z,9.3
2019-05-18T01:34:14.398Z,9.3
2019-05-18T01:35:05.276Z,9.3
2019-05-18T01:35:56.155Z,9.2
2019-05-18T01:36:47.028Z,9.2
2019-05-18T01:37:37.894Z,9.3
2019-05-18T01:38:28.767Z,9.3
2019-05-18T01:39:19.662Z,9.3
2019-05-18T01:40:10.535Z,9.3
2019-05-18T01:41:01.411Z,9.3
2019-05-18T01:41:52.278Z,9.3
2019-05-18T01:42:43.167Z,9.3
2019-05-18T01:43:34.041Z,9.3
2019-05-18T01:44:24.958Z,9.3
2019-05-18T01:45:17.433Z,9.3
2019-05-18T01:46:08.452Z,9.3
2019-05-18T01:46:59.323Z,9.3
2019-05-18T01:47:50.210Z,9.3
2019-05-18T01:48:41.083Z,9.3
2019-05-18T01:49:31.991Z,9.3
2019-05-18T01:50:22.865Z,9.3
2019-05-18T01:51:13.737Z,9.3
2019-05-18T01:52:04.613Z,9.3
2019-05-18T01:52:55.494Z,9.3
2019-05-18T01:53:46.373Z,9.3
2019-05-18T01:54:37.285Z,9.3
2019-05-18T01:55:28.158Z,9.3
2019-05-18T01:56:19.022Z,9.3
2019-05-18T01:57:09.887Z,9.3
2019-05-18T01:58:00.771Z,9.3
2019-05-18T01:58:51.656Z,9.3
2019-05-18T01:59:42.523Z,9.3
2019-05-18T02:00:33.421Z,9.3
2019-05-18T02:01:24.294Z,9.3
2019-05-18T02:02:15.174Z,9.3
2019-05-18T02:03:06.040Z,9.3
2019-05-18T02:03:56.918Z,9.3
2019-05-18T02:04:47.788Z,9.3
2019-05-18T02:05:38.692Z,9.3
2019-05-18T02:06:29.576Z,9.3
2019-05-18T02:07:20.442Z,9.3
2019-05-18T02:08:11.317Z,9.3
2019-05-18T02:09:02.196Z,9.3
2019-05-18T02:09:53.060Z,9.3
2019-05-18T02:10:43.967Z,9.3
2019-05-18T02:11:34.855Z,9.3
2019-05-18T02:12:25.730Z,9.3
2019-05-18T02:13:16.598Z,9.3
2019-05-18T02:14:07.469Z,9.3
2019-05-18T02:14:58.334Z,9.3
2019-05-18T02:15:49.226Z,9.3
2019-05-18T02:16:40.092Z,9.3
2019-05-18T02:17:30.965Z,9.3
2019-05-18T02:18:28.923Z,9.3
2019-05-18T02:19:17.644Z,9.3
2019-05-18T02:20:08.519Z,9.3
2019-05-18T02:20:59.415Z,9.3
2019-05-18T02:21:50.290Z,9.3
2019-05-18T02:22:41.163Z,9.3
2019-05-18T02:23:32.053Z,9.3
2019-05-18T02:24:22.920Z,9.3
2019-05-18T02:25:13.793Z,9.4
2019-05-18T02:26:04.710Z,9.3
2019-05-18T02:26:55.600Z,9.4
2019-05-18T02:27:46.466Z,9.4
2019-05-18T02:28:37.335Z,9.3
2019-05-18T02:29:28.211Z,9.3
2019-05-18T02:30:19.083Z,9.4
2019-05-18T02:31:09.990Z,9.4
2019-05-18T02:32:00.873Z,9.4
2019-05-18T02:32:51.747Z,9.4
2019-05-18T02:33:42.622Z,9.4
2019-05-18T02:34:33.496Z,9.4
2019-05-18T02:35:24.375Z,9.4
2019-05-18T02:36:15.277Z,9.4
2019-05-18T02:37:06.145Z,9.4
2019-05-18T02:37:57.020Z,9.4
2019-05-18T02:38:47.895Z,9.4
2019-05-18T02:39:38.766Z,9.4
2019-05-18T02:40:29.643Z,9.4
2019-05-18T02:41:20.541Z,9.4
2019-05-18T02:42:11.412Z,9.4
2019-05-18T02:43:02.285Z,9.4
2019-05-18T02:43:53.159Z,9.4
2019-05-18T02:44:44.040Z,9.3
2019-05-18T02:45:34.920Z,9.3
2019-05-18T02:46:25.825Z,9.3
2019-05-18T02:47:16.697Z,9.3
2019-05-18T02:48:07.563Z,9.4
2019-05-18T02:48:58.434Z,9.3
2019-05-18T02:49:49.306Z,9.3
2019-05-18T02:50:40.200Z,9.3
2019-05-18T02:51:31.113Z,9.3
2019-05-18T02:52:21.987Z,9.3
2019-05-18T02:53:12.857Z,9.3
2019-05-18T02:54:03.745Z,9.3
2019-05-18T02:54:54.620Z,9.3
2019-05-18T02:55:45.487Z,9.3
2019-05-18T02:56:36.413Z,9.3
2019-05-18T02:57:27.317Z,9.3
2019-05-18T02:58:18.190Z,9.4
2019-05-18T02:59:09.072Z,9.4
2019-05-18T02:59:59.939Z,9.4
2019-05-18T03:00:50.818Z,9.4
2019-05-18T03:01:41.729Z,9.4
2019-05-18T03:02:32.600Z,9.3
2019-05-18T03:03:23.478Z,9.3
2019-05-18T03:04:14.350Z,9.3
2019-05-18T03:05:05.232Z,9.3
2019-05-18T03:05:56.102Z,9.3
2019-05-18T03:06:47.002Z,9.3
2019-05-18T03:07:37.878Z,9.3
2019-05-18T03:08:28.756Z,9.3
2019-05-18T03:09:19.622Z,9.3
2019-05-18T03:10:10.499Z,9.3
2019-05-18T03:11:01.384Z,9.4
2019-05-18T03:11:52.289Z,9.4
2019-05-18T03:12:43.176Z,9.4
2019-05-18T03:13:34.049Z,9.4
2019-05-18T03:14:24.927Z,9.4
2019-05-18T03:15:15.796Z,9.4
2019-05-18T03:16:06.673Z,9.4
2019-05-18T03:16:57.573Z,9.4
2019-05-18T03:17:48.446Z,9.4
2019-05-18T03:18:39.315Z,9.4
2019-05-18T03:19:30.194Z,9.4
2019-05-18T03:20:26.061Z,9.4
2019-05-18T03:21:16.925Z,9.4
2019-05-18T03:22:07.829Z,9.4
2019-05-18T03:22:58.711Z,9.4
2019-05-18T03:23:49.615Z,9.4
2019-05-18T03:24:40.495Z,9.4
2019-05-18T03:25:31.366Z,9.4
2019-05-18T03:26:22.242Z,9.4
2019-05-18T03:27:13.140Z,9.4
2019-05-18T03:28:04.010Z,9.4
2019-05-18T03:28:54.882Z,9.4
2019-05-18T03:29:45.757Z,9.4
2019-05-18T03:30:36.634Z,9.4
2019-05-18T03:31:27.513Z,9.4
2019-05-18T03:32:18.417Z,9.4
2019-05-18T03:33:09.296Z,9.4
2019-05-18T03:34:00.169Z,9.4
2019-05-18T03:34:51.040Z,9.4
2019-05-18T03:35:42.051Z,9.4
2019-05-18T03:36:32.952Z,9.4
2019-05-18T03:37:23.850Z,9.4
2019-05-18T03:38:14.720Z,9.4
2019-05-18T03:39:05.608Z,9.4
2019-05-18T03:39:56.481Z,9.4
2019-05-18T03:40:47.356Z,9.4
2019-05-18T03:41:38.231Z,9.4
2019-05-18T03:42:29.143Z,9.4
2019-05-18T03:43:20.019Z,9.4
2019-05-18T03:44:10.894Z,9.4
2019-05-18T03:45:01.791Z,9.4
2019-05-18T03:45:52.666Z,9.4
2019-05-18T03:46:43.538Z,9.4
2019-05-18T03:47:34.448Z,9.4
2019-05-18T03:48:25.314Z,9.4
2019-05-18T03:49:25.807Z,9.4
2019-05-18T03:50:11.994Z,9.4
2019-05-18T03:51:02.863Z,9.4
2019-05-18T03:51:53.739Z,9.5
2019-05-18T03:52:44.636Z,9.4
2019-05-18T03:53:35.512Z,9.5
2019-05-18T03:54:26.390Z,9.5
2019-05-18T03:55:17.261Z,9.4
2019-05-18T03:56:08.148Z,9.4
2019-05-18T03:56:59.022Z,9.5
2019-05-18T03:57:49.923Z,9.5
2019-05-18T03:58:40.836Z,9.5
2019-05-18T03:59:31.727Z,9.5
2019-05-18T04:00:22.601Z,9.5
2019-05-18T04:01:13.474Z,9.5
2019-05-18T04:02:04.343Z,9.5
2019-05-18T04:02:55.243Z,9.5
2019-05-18T04:03:46.115Z,9.5
2019-05-18T04:04:37.001Z,9.5
2019-05-18T04:05:27.885Z,9.5
2019-05-18T04:06:18.755Z,9.5
2019-05-18T04:07:09.633Z,9.5
2019-05-18T04:08:00.541Z,9.5
2019-05-18T04:08:51.412Z,9.6
2019-05-18T04:09:42.289Z,9.5
2019-05-18T04:10:33.158Z,9.6
2019-05-18T04:11:24.080Z,9.6
2019-05-18T04:12:14.956Z,9.6
2019-05-18T04:13:05.855Z,9.5
2019-05-18T04:13:56.729Z,9.5
2019-05-18T04:14:47.619Z,9.5
2019-05-18T04:15:38.503Z,9.6
2019-05-18T04:16:29.389Z,9.6
2019-05-18T04:17:20.281Z,9.6
2019-05-18T04:18:11.185Z,9.6
2019-05-18T04:19:02.065Z,9.6
2019-05-18T04:19:52.944Z,9.6
2019-05-18T04:20:43.811Z,9.7
2019-05-18T04:21:34.695Z,9.7
2019-05-18T04:22:25.571Z,9.7
2019-05-18T04:23:16.495Z,9.8
2019-05-18T04:24:07.380Z,9.8
2019-05-18T04:24:58.258Z,9.8
2019-05-18T04:25:49.135Z,9.8
2019-05-18T04:26:40.011Z,9.8
2019-05-18T04:27:30.884Z,9.7
2019-05-18T04:28:21.762Z,9.8
2019-05-18T04:29:12.678Z,9.8
2019-05-18T04:30:03.553Z,9.8
2019-05-18T04:30:54.453Z,9.8
2019-05-18T04:31:45.333Z,9.8
2019-05-18T04:32:36.207Z,9.8
2019-05-18T04:33:27.120Z,9.8
2019-05-18T04:34:18.000Z,9.8
2019-05-18T04:35:08.911Z,9.8
2019-05-18T04:35:59.787Z,9.9
2019-05-18T04:36:50.697Z,9.8
2019-05-18T04:37:41.591Z,9.9
2019-05-18T04:38:32.530Z,9.9
2019-05-18T04:39:23.401Z,9.9
2019-05-18T04:40:14.291Z,9.8
2019-05-18T04:41:05.276Z,9.8
2019-05-18T04:41:56.149Z,9.8
2019-05-18T04:42:47.017Z,9.8
2019-05-18T04:43:37.941Z,9.9
2019-05-18T04:44:28.806Z,9.9
2019-05-18T04:45:19.686Z,9.9
2019-05-18T04:46:10.557Z,9.9
2019-05-18T04:47:01.438Z,9.9
2019-05-18T04:47:52.323Z,9.9
2019-05-18T04:48:43.198Z,9.9
2019-05-18T04:49:34.108Z,9.9
2019-05-18T04:50:24.979Z,9.9
2019-05-18T04:51:15.849Z,10
2019-05-18T04:52:06.728Z,10.1
2019-05-18T04:52:57.628Z,10.1
2019-05-18T04:53:48.537Z,10.1
2019-05-18T04:54:39.405Z,10.1
2019-05-18T04:55:30.284Z,10.1
2019-05-18T04:56:21.155Z,10.1
2019-05-18T04:57:12.033Z,10.1
2019-05-18T04:58:02.900Z,10.2
2019-05-18T04:58:53.832Z,10.2
2019-05-18T04:59:44.707Z,10.2
2019-05-18T05:00:35.582Z,10.3
2019-05-18T05:01:26.474Z,10.2
2019-05-18T05:02:17.362Z,10.2
2019-05-18T05:03:08.231Z,10.2
2019-05-18T05:03:59.147Z,10.2
2019-05-18T05:04:52.784Z,10.3
2019-05-18T05:05:45.822Z,10.3
2019-05-18T05:06:36.692Z,10.3
2019-05-18T05:07:27.559Z,10.3
2019-05-18T05:08:18.430Z,10.3
2019-05-18T05:09:09.332Z,10.3
2019-05-18T05:10:00.222Z,10.4
2019-05-18T05:10:51.100Z,10.4
2019-05-18T05:11:41.971Z,10.6
2019-05-18T05:12:32.855Z,10.6
2019-05-18T05:13:23.730Z,10.6
2019-05-18T05:14:14.626Z,10.6
2019-05-18T05:15:05.491Z,10.6
2019-05-18T05:15:56.358Z,10.6
2019-05-18T05:16:47.232Z,10.6
2019-05-18T05:17:38.109Z,10.6
2019-05-18T05:18:28.978Z,10.6
2019-05-18T05:19:19.879Z,10.8
2019-05-18T05:20:19.044Z,10.8
2019-05-18T05:21:06.557Z,10.8
2019-05-18T05:21:57.488Z,10.8
2019-05-18T05:22:48.507Z,10.9
2019-05-18T05:23:39.433Z,10.9
2019-05-18T05:24:30.353Z,11.1
2019-05-18T05:25:21.270Z,11.2
2019-05-18T05:26:12.143Z,11.3
2019-05-18T05:27:03.023Z,11.3
2019-05-18T05:27:53.891Z,11.3
2019-05-18T05:28:44.756Z,11.3
2019-05-18T05:29:35.650Z,11.3
2019-05-18T05:30:26.568Z,11.3
2019-05-18T05:31:17.434Z,11.3
2019-05-18T05:32:08.306Z,11.3
2019-05-18T05:32:59.199Z,11.3
2019-05-18T05:33:50.074Z,11.3
2019-05-18T05:34:40.974Z,11.3
2019-05-18T05:35:31.842Z,11.3
2019-05-18T05:36:22.713Z,11.3
2019-05-18T05:37:13.580Z,11.3
2019-05-18T05:38:04.465Z,11.2
2019-05-18T05:38:55.329Z,11.2
2019-05-18T05:39:46.230Z,11.1
2019-05-18T05:40:37.099Z,11.2
2019-05-18T05:41:27.970Z,11.3
2019-05-18T05:42:18.833Z,11.3
2019-05-18T05:43:09.697Z,11.3
2019-05-18T05:44:00.568Z,11.3
2019-05-18T05:44:51.468Z,11.3
2019-05-18T05:45:42.340Z,11.3
2019-05-18T05:46:33.274Z,11.3
2019-05-18T05:47:24.148Z,11.3
2019-05-18T05:48:15.019Z,11.3
2019-05-18T05:49:05.912Z,11.3
2019-05-18T05:49:56.824Z,11.3
2019-05-18T05:50:47.692Z,11.3
2019-05-18T05:51:38.558Z,11.3
2019-05-18T05:52:29.425Z,11.3
2019-05-18T05:53:20.295Z,11.3
2019-05-18T05:54:11.164Z,11.3
2019-05-18T05:55:02.065Z,11.3
2019-05-18T05:55:52.937Z,11.3
2019-05-18T05:56:43.805Z,11.3
2019-05-18T05:57:34.723Z,11.3
2019-05-18T05:58:25.589Z,11.3
2019-05-18T05:59:16.456Z,11.3
2019-05-18T06:00:07.354Z,11.3
2019-05-18T06:00:58.225Z,11.3
2019-05-18T06:01:49.106Z,11.3
2019-05-18T06:02:39.977Z,11.3
2019-05-18T06:03:30.847Z,11.3
2019-05-18T06:04:21.726Z,11.3
2019-05-18T06:05:12.626Z,11.3
2019-05-18T06:06:03.495Z,11.3
2019-05-18T06:06:54.369Z,11.3
2019-05-18T06:07:45.245Z,11.4
2019-05-18T06:08:36.117Z,11.4
2019-05-18T06:09:26.989Z,11.4
2019-05-18T06:10:17.854Z,11.4
2019-05-18T06:11:08.755Z,11.4
2019-05-18T06:11:59.634Z,11.4
2019-05-18T06:12:50.504Z,11.4
2019-05-18T06:13:41.372Z,11.4
2019-05-18T06:14:32.251Z,11.4
2019-05-18T06:15:23.151Z,11.4
2019-05-18T06:16:14.027Z,11.4
2019-05-18T06:17:08.223Z,11.4
2019-05-18T06:17:59.386Z,11.4
2019-05-18T06:18:50.262Z,11.4
2019-05-18T06:19:41.143Z,11.4
2019-05-18T06:20:32.049Z,11.4
2019-05-18T06:21:22.924Z,11.4
2019-05-18T06:22:13.794Z,11.4
2019-05-18T06:23:04.664Z,11.4
2019-05-18T06:23:55.539Z,11.4
2019-05-18T06:24:46.407Z,11.4
2019-05-18T06:25:37.291Z,11.4
2019-05-18T06:26:28.192Z,11.4
2019-05-18T06:27:19.067Z,11.4
2019-05-18T06:28:09.942Z,11.4
2019-05-18T06:29:00.821Z,11.4
2019-05-18T06:29:51.703Z,11.4
2019-05-18T06:30:42.577Z,11.4
2019-05-18T06:31:33.476Z,11.4
2019-05-18T06:32:24.351Z,11.4
2019-05-18T06:33:15.215Z,11.4
2019-05-18T06:34:06.082Z,11.4
2019-05-18T06:34:56.955Z,11.4
2019-05-18T06:35:47.821Z,11.4
2019-05-18T06:36:38.726Z,11.4
2019-05-18T06:37:29.597Z,11.4
2019-05-18T06:38:20.465Z,11.4
2019-05-18T06:39:11.385Z,11.4
2019-05-18T06:40:02.367Z,11.4
2019-05-18T06:40:53.443Z,11.4
2019-05-18T06:41:44.344Z,11.4
2019-05-18T06:42:35.212Z,11.4
2019-05-18T06:43:26.111Z,11.4
2019-05-18T06:44:16.987Z,11.4
2019-05-18T06:45:07.856Z,11.4
2019-05-18T06:45:58.734Z,11.4
2019-05-18T06:46:49.680Z,11.4
2019-05-18T06:47:40.555Z,11.4
2019-05-18T06:48:31.425Z,11.4
2019-05-18T06:49:22.311Z,11.4
2019-05-18T06:50:13.458Z,11.4
2019-05-18T06:51:06.995Z,11.4
2019-05-18T06:51:58.468Z,11.4
2019-05-18T06:52:49.865Z,11.5
2019-05-18T06:53:40.752Z,11.5
2019-05-18T06:54:31.617Z,11.5
2019-05-18T06:55:22.487Z,11.5
2019-05-18T06:56:13.355Z,11.5
2019-05-18T06:57:04.346Z,11.5
2019-05-18T06:58:00.249Z,11.5
2019-05-18T06:58:51.115Z,11.5
2019-05-18T06:59:41.993Z,11.5
2019-05-18T07:00:32.867Z,11.5
2019-05-18T07:01:23.735Z,11.5
2019-05-18T07:02:14.647Z,11.5
2019-05-18T07:03:05.524Z,11.5
2019-05-18T07:03:56.393Z,11.5
2019-05-18T07:04:47.254Z,11.5
2019-05-18T07:05:38.119Z,11.5
2019-05-18T07:06:28.997Z,11.5
2019-05-18T07:07:19.895Z,11.5
2019-05-18T07:08:10.762Z,11.5
2019-05-18T07:09:01.637Z,11.5
2019-05-18T07:09:52.508Z,11.5
2019-05-18T07:10:43.377Z,11.5
2019-05-18T07:11:34.255Z,11.5
2019-05-18T07:12:25.160Z,11.5
2019-05-18T07:13:16.184Z,11.6
2019-05-18T07:14:07.113Z,11.6
2019-05-18T07:15:00.417Z,11.6
2019-05-18T07:15:51.630Z,11.6
2019-05-18T07:16:42.602Z,11.6
2019-05-18T07:17:34.634Z,11.6
2019-05-18T07:18:25.908Z,11.6
2019-05-18T07:19:16.955Z,11.6
2019-05-18T07:20:07.979Z,11.6
2019-05-18T07:21:00.237Z,11.6
2019-05-18T07:21:51.217Z,11.6
2019-05-18T07:22:42.216Z,11.6
2019-05-18T07:23:33.323Z,11.6
2019-05-18T07:24:24.566Z,11.6
2019-05-18T07:25:15.772Z,11.6
2019-05-18T07:26:07.008Z,11.6
2019-05-18T07:26:57.985Z,11.6
2019-05-18T07:27:49.783Z,11.6
2019-05-18T07:28:41.595Z,11.6
2019-05-18T07:29:32.589Z,11.6
2019-05-18T07:30:23.735Z,11.6
2019-05-18T07:31:14.731Z,11.6
2019-05-18T07:32:05.648Z,11.6
2019-05-18T07:32:56.580Z,11.6
2019-05-18T07:33:47.449Z,11.6
2019-05-18T07:34:38.321Z,11.6
2019-05-18T07:35:29.191Z,11.6
2019-05-18T07:36:20.073Z,11.6
2019-05-18T07:37:10.940Z,11.6
2019-05-18T07:38:01.863Z,11.6
2019-05-18T07:38:52.754Z,11.6
2019-05-18T07:39:43.632Z,11.6
2019-05-18T07:40:34.534Z,11.6
2019-05-18T07:41:25.405Z,11.6
2019-05-18T07:42:16.300Z,11.6
2019-05-18T07:43:07.227Z,11.6
2019-05-18T07:43:58.097Z,11.6
2019-05-18T07:44:48.967Z,11.6
2019-05-18T07:45:39.880Z,11.6
2019-05-18T07:46:30.750Z,11.6
2019-05-18T07:47:21.627Z,11.6
2019-05-18T07:48:12.529Z,11.6
2019-05-18T07:49:03.416Z,11.6
2019-05-18T07:49:54.305Z,11.6
2019-05-18T07:50:45.176Z,11.7
2019-05-18T07:51:37.252Z,11.6
2019-05-18T07:52:28.271Z,11.6
2019-05-18T07:53:19.181Z,11.7
2019-05-18T07:54:10.047Z,11.7
2019-05-18T07:55:00.939Z,11.7
2019-05-18T07:55:51.811Z,11.7
2019-05-18T07:56:42.684Z,11.7
2019-05-18T07:57:33.556Z,11.7
2019-05-18T07:58:24.425Z,11.7
2019-05-18T07:59:15.327Z,11.7
2019-05-18T08:00:06.195Z,11.7
2019-05-18T08:00:57.060Z,11.7
2019-05-18T08:01:47.926Z,11.7
2019-05-18T08:02:38.853Z,11.7
2019-05-18T08:03:29.751Z,11.7
2019-05-18T08:04:20.637Z,11.7
2019-05-18T08:05:11.507Z,11.7
2019-05-18T08:06:02.379Z,11.8
2019-05-18T08:06:53.270Z,11.8
2019-05-18T08:07:44.140Z,11.8
2019-05-18T08:08:35.050Z,11.8
2019-05-18T08:09:25.924Z,11.8
2019-05-18T08:10:16.796Z,11.8
2019-05-18T08:11:07.669Z,11.8
2019-05-18T08:11:58.542Z,11.8
2019-05-18T08:12:49.413Z,11.8
2019-05-18T08:13:40.279Z,11.8
2019-05-18T08:14:31.180Z,11.8
2019-05-18T08:15:22.048Z,11.8
2019-05-18T08:16:12.922Z,11.8
2019-05-18T08:17:03.790Z,11.8
2019-05-18T08:17:54.663Z,11.8
2019-05-18T08:18:45.536Z,11.8
2019-05-18T08:19:36.430Z,11.9
2019-05-18T08:20:27.298Z,11.9
2019-05-18T08:21:18.169Z,11.9
2019-05-18T08:22:09.038Z,11.9
2019-05-18T08:22:59.903Z,11.9
2019-05-18T08:23:50.771Z,11.9
2019-05-18T08:24:41.674Z,11.9
2019-05-18T08:25:32.559Z,11.9
2019-05-18T08:26:23.438Z,11.9
2019-05-18T08:27:14.319Z,11.9
2019-05-18T08:28:05.199Z,11.9
2019-05-18T08:28:56.069Z,11.9
2019-05-18T08:29:46.966Z,11.9
2019-05-18T08:30:37.830Z,11.9
2019-05-18T08:31:28.699Z,11.9
2019-05-18T08:32:19.572Z,11.9
2019-05-18T08:33:10.441Z,11.9
2019-05-18T08:34:01.306Z,11.9
2019-05-18T08:34:52.202Z,11.9
2019-05-18T08:35:43.068Z,12
2019-05-18T08:36:33.938Z,12
2019-05-18T08:37:24.806Z,12
2019-05-18T08:38:15.680Z,12
2019-05-18T08:39:06.586Z,12
2019-05-18T08:39:57.530Z,12
2019-05-18T08:40:48.399Z,12
2019-05-18T08:41:39.296Z,12
2019-05-18T08:42:30.194Z,12
2019-05-18T08:43:21.061Z,12
2019-05-18T08:44:11.929Z,12
2019-05-18T08:45:02.834Z,12
2019-05-18T08:45:53.718Z,12.1
2019-05-18T08:46:44.602Z,12.1
2019-05-18T08:47:35.468Z,12.1
2019-05-18T08:48:26.347Z,12.1
2019-05-18T08:49:17.222Z,12.1
2019-05-18T08:50:08.120Z,12.1
2019-05-18T08:50:58.988Z,12.1
2019-05-18T08:51:49.864Z,12.1
2019-05-18T08:52:40.733Z,12.1
2019-05-18T08:53:31.600Z,12.2
2019-05-18T08:54:22.472Z,12.2
2019-05-18T08:55:13.372Z,12.2
2019-05-18T08:56:04.270Z,12.2
2019-05-18T08:56:55.147Z,12.2
2019-05-18T08:57:46.017Z,12.2
2019-05-18T08:58:36.891Z,12.2
2019-05-18T08:59:27.767Z,12.2
2019-05-18T09:00:18.664Z,12.2
2019-05-18T09:01:09.541Z,12.3
2019-05-18T09:02:00.424Z,12.3
2019-05-18T09:02:51.297Z,12.3
2019-05-18T09:03:42.161Z,12.3
2019-05-18T09:04:33.040Z,12.3
2019-05-18T09:05:23.935Z,12.4
2019-05-18T09:06:14.878Z,12.4
2019-05-18T09:07:05.771Z,12.4
2019-05-18T09:07:56.641Z,12.4
2019-05-18T09:08:47.504Z,12.4
2019-05-18T09:09:38.373Z,12.4
2019-05-18T09:10:29.264Z,12.4
2019-05-18T09:11:20.138Z,12.4
2019-05-18T09:12:11.019Z,12.4
2019-05-18T09:13:01.905Z,12.4
2019-05-18T09:13:52.792Z,12.4
2019-05-18T09:14:43.679Z,12.5
2019-05-18T09:15:34.609Z,12.5
2019-05-18T09:16:25.486Z,12.5
2019-05-18T09:17:16.361Z,12.5
2019-05-18T09:18:07.231Z,12.5
2019-05-18T09:18:58.104Z,12.5
2019-05-18T09:19:48.980Z,12.5
2019-05-18T09:20:39.882Z,12.6
2019-05-18T09:21:30.744Z,12.6
2019-05-18T09:22:23.359Z,12.6
2019-05-18T09:23:14.395Z,12.6
2019-05-18T09:24:05.269Z,12.6
2019-05-18T09:24:56.134Z,12.6
2019-05-18T09:25:47.037Z,12.6
2019-05-18T09:26:37.909Z,12.6
2019-05-18T09:27:28.786Z,12.6
2019-05-18T09:28:19.660Z,12.6
2019-05-18T09:29:10.584Z,12.7
2019-05-18T09:30:01.496Z,12.7
2019-05-18T09:30:52.403Z,12.7
2019-05-18T09:31:43.267Z,12.7
2019-05-18T09:32:34.138Z,12.7
2019-05-18T09:33:25.025Z,12.8
2019-05-18T09:34:15.894Z,12.8
2019-05-18T09:35:06.770Z,12.8
2019-05-18T09:35:57.669Z,12.8
2019-05-18T09:36:48.537Z,12.8
2019-05-18T09:37:39.419Z,12.8
2019-05-18T09:38:33.114Z,12.8
2019-05-18T09:39:24.135Z,12.8
2019-05-18T09:40:15.006Z,12.8
2019-05-18T09:41:05.907Z,12.8
2019-05-18T09:41:56.777Z,12.8
2019-05-18T09:42:47.656Z,12.8
2019-05-18T09:43:38.552Z,12.9
2019-05-18T09:44:29.444Z,12.9
2019-05-18T09:45:20.313Z,12.9
2019-05-18T09:46:11.221Z,12.9
2019-05-18T09:47:02.098Z,12.9
2019-05-18T09:47:53.001Z,12.9
2019-05-18T09:48:43.929Z,12.9
2019-05-18T09:49:34.801Z,12.9
2019-05-18T09:50:25.679Z,12.9
2019-05-18T09:51:16.601Z,13
2019-05-18T09:52:07.479Z,13
2019-05-18T09:52:58.347Z,13
2019-05-18T09:53:51.371Z,13
2019-05-18T09:54:42.491Z,13
2019-05-18T09:55:33.359Z,13
2019-05-18T09:56:24.252Z,13.1
2019-05-18T09:57:15.120Z,13.1
2019-05-18T09:58:05.998Z,13.1
2019-05-18T09:58:56.871Z,13.1
2019-05-18T09:59:47.744Z,13.1
2019-05-18T10:00:39.230Z,13.1
2019-05-18T10:01:30.219Z,13.1
2019-05-18T10:02:21.119Z,13.1
2019-05-18T10:03:12.013Z,13.1
2019-05-18T10:04:02.901Z,13.1
2019-05-18T10:04:53.770Z,13.2
2019-05-18T10:05:44.643Z,13.2
2019-05-18T10:06:35.538Z,13.2
2019-05-18T10:07:26.412Z,13.2
2019-05-18T10:08:17.283Z,13.2
2019-05-18T10:09:08.152Z,13.2
2019-05-18T10:09:59.022Z,13.3
2019-05-18T10:10:49.889Z,13.3
2019-05-18T10:11:40.786Z,13.3
2019-05-18T10:12:31.650Z,13.3
2019-05-18T10:13:22.526Z,13.3
2019-05-18T10:14:13.400Z,13.3
2019-05-18T10:15:04.303Z,13.3
2019-05-18T10:15:55.200Z,13.3
2019-05-18T10:16:46.105Z,13.3
2019-05-18T10:17:37.004Z,13.3
2019-05-18T10:18:28.918Z,13.4
2019-05-18T10:19:20.558Z,13.7
2019-05-18T10:20:11.436Z,13.8
2019-05-18T10:21:02.303Z,13.8
2019-05-18T10:21:53.213Z,13.9
2019-05-18T10:22:53.773Z,14
2019-05-18T10:23:40.497Z,14.1
2019-05-18T10:24:31.471Z,14.1
2019-05-18T10:25:22.337Z,14.1
2019-05-18T10:26:13.272Z,14.1
2019-05-18T10:27:04.189Z,14.3
2019-05-18T10:27:55.082Z,14.2
2019-05-18T10:28:45.947Z,14.2
2019-05-18T10:29:36.823Z,14.2
2019-05-18T10:30:27.686Z,14.1
2019-05-18T10:31:18.552Z,14.2
2019-05-18T10:32:09.447Z,14.1
2019-05-18T10:33:00.317Z,14
2019-05-18T10:33:51.186Z,13.9
2019-05-18T10:34:42.072Z,13.9
2019-05-18T10:35:37.949Z,13.8
2019-05-18T10:36:28.817Z,13.8
2019-05-18T10:37:19.809Z,13.8
2019-05-18T10:38:10.702Z,13.8
2019-05-18T10:39:01.567Z,13.7
2019-05-18T10:39:52.455Z,13.7
2019-05-18T10:40:43.395Z,13.7
2019-05-18T10:41:34.273Z,13.6
2019-05-18T10:42:25.174Z,13.6
2019-05-18T10:43:16.045Z,13.6
2019-05-18T10:44:06.921Z,13.6
2019-05-18T10:44:57.793Z,13.6
2019-05-18T10:45:48.662Z,13.6
2019-05-18T10:46:39.533Z,13.6
2019-05-18T10:47:30.433Z,13.6
2019-05-18T10:48:21.318Z,13.6
2019-05-18T10:49:12.187Z,13.6
2019-05-18T10:50:03.071Z,13.6
2019-05-18T10:50:53.942Z,13.6
2019-05-18T10:51:44.818Z,13.6
2019-05-18T10:52:35.731Z,13.6
2019-05-18T10:53:28.957Z,13.6
2019-05-18T10:54:20.033Z,13.7
2019-05-18T10:55:10.904Z,13.7
2019-05-18T10:56:01.777Z,13.7
2019-05-18T10:56:52.643Z,13.7
2019-05-18T10:57:43.537Z,13.7
2019-05-18T10:58:34.406Z,13.7
2019-05-18T10:59:25.277Z,13.7
2019-05-18T11:00:16.152Z,13.7
2019-05-18T11:01:07.027Z,13.8
2019-05-18T11:01:57.901Z,13.8
2019-05-18T11:02:48.806Z,13.8
2019-05-18T11:03:39.687Z,13.8
2019-05-18T11:04:30.580Z,13.8
2019-05-18T11:05:21.743Z,13.8
2019-05-18T11:06:12.606Z,13.8
2019-05-18T11:07:03.509Z,13.8
2019-05-18T11:07:54.439Z,13.8
2019-05-18T11:08:45.310Z,13.8
2019-05-18T11:09:36.187Z,13.8
2019-05-18T11:10:27.059Z,13.8
2019-05-18T11:11:17.926Z,13.8
2019-05-18T11:12:08.794Z,13.8
2019-05-18T11:12:59.699Z,13.8
2019-05-18T11:13:50.567Z,13.8
2019-05-18T11:14:41.435Z,13.8
2019-05-18T11:15:32.304Z,13.8
2019-05-18T11:16:23.171Z,13.8
2019-05-18T11:17:14.043Z,13.8
2019-05-18T11:18:04.945Z,13.8
2019-05-18T11:18:55.812Z,13.8
2019-05-18T11:19:46.693Z,13.9
2019-05-18T11:20:37.559Z,13.9
2019-05-18T11:21:28.428Z,13.9
2019-05-18T11:22:19.304Z,13.9
2019-05-18T11:23:10.200Z,13.9
2019-05-18T11:24:01.123Z,13.9
2019-05-18T11:24:51.987Z,13.9
2019-05-18T11:25:42.865Z,13.9
2019-05-18T11:26:33.743Z,13.9
2019-05-18T11:27:24.633Z,13.9
2019-05-18T11:28:15.542Z,13.9
2019-05-18T11:29:06.416Z,13.9